Time;durP1;ratioP1;P1;durP2;ratioP2;P2;SDS_P1;SDS_P2;PMS_P1;PMS_P2;Temp;Humidity;BMP_temperature;BMP_pressure;BME280_temperature;BME280_humidity;BME280_pressure;Samples;Min_cycle;Max_cycle;Signal;HPM_P1;HPM_P2
2024/02/01 00:00:05;;;;;;;10.18;4.93;;;10.70;99.90;;;10.02;100.00;103018.34;4168110;28;20025;-74
2024/02/01 00:02:06;;;;;;;13.10;6.65;;;10.70;99.90;;;10.01;100.00;103010.50;4169337;28;20075;-73
2024/02/01 00:04:07;;;;;;;9.55;4.72;;;10.70;99.90;;;10.01;100.00;103016.63;4151730;28;20026;-74
2024/02/01 00:06:08;;;;;;;9.18;3.90;;;10.70;99.90;;;10.00;100.00;103020.19;4151627;28;20030;-74
2024/02/01 00:08:09;;;;;;;10.98;4.28;;;10.70;99.90;;;9.98;100.00;103022.09;4165050;28;20496;-73
2024/02/01 00:10:09;;;;;;;12.90;5.40;;;10.70;99.90;;;9.99;100.00;103012.41;4169352;28;20436;-73
2024/02/01 00:12:10;;;;;;;11.32;4.07;;;10.60;99.90;;;9.95;100.00;103006.47;4169020;28;20408;-73
2024/02/01 00:14:11;;;;;;;8.85;4.40;;;10.60;99.90;;;9.98;100.00;103013.34;4151560;28;20037;-74
2024/02/01 00:16:22;;;;;;;8.32;3.75;;;10.60;99.90;;;9.98;100.00;103010.69;4167979;28;20060;-74
2024/02/01 00:18:23;;;;;;;10.80;3.85;;;10.60;99.90;;;9.97;100.00;103017.75;4151721;28;20029;-73
2024/02/01 00:20:25;;;;;;;10.27;4.53;;;10.60;99.90;;;9.98;100.00;103014.19;4167989;28;20092;-73
2024/02/01 00:22:25;;;;;;;9.07;3.75;;;10.60;99.90;;;9.97;100.00;103012.47;4167972;28;20037;-74
2024/02/01 00:24:26;;;;;;;7.28;3.95;;;10.60;99.90;;;9.97;100.00;103014.31;4151140;28;20489;-73
2024/02/01 00:26:27;;;;;;;8.30;4.10;;;10.60;99.90;;;10.00;100.00;103017.56;4183813;28;20037;-73
2024/02/01 00:28:28;;;;;;;7.95;3.70;;;10.60;99.90;;;10.01;100.00;103014.00;4167512;28;20025;-73
2024/02/01 00:30:29;;;;;;;7.45;3.70;;;10.60;99.90;;;10.00;100.00;103017.56;4168997;28;20032;-74
2024/02/01 00:32:31;;;;;;;10.80;3.70;;;10.60;99.90;;;10.00;100.00;103009.66;4168919;28;20044;-74
2024/02/01 00:34:33;;;;;;;9.25;4.65;;;10.70;99.90;;;9.97;100.00;103001.94;4167548;28;20029;-74
2024/02/01 00:36:33;;;;;;;6.97;4.50;;;10.60;99.90;;;10.00;100.00;102993.84;4167802;28;20532;-74
2024/02/01 00:38:35;;;;;;;7.43;4.30;;;10.70;99.90;;;10.00;100.00;102993.84;4169017;28;20028;-73
2024/02/01 00:40:36;;;;;;;10.40;5.28;;;10.70;99.90;;;10.03;100.00;102990.19;4168822;28;20017;-74
2024/02/01 00:42:37;;;;;;;16.13;7.82;;;10.60;99.90;;;10.01;100.00;102987.63;4167384;28;20504;-73
2024/02/01 00:44:37;;;;;;;18.88;7.43;;;10.60;99.90;;;9.99;100.00;102991.31;4168723;28;20736;-74
2024/02/01 00:46:38;;;;;;;9.60;5.07;;;10.60;99.90;;;10.02;100.00;102999.88;4167278;28;20040;-74
2024/02/01 00:48:39;;;;;;;9.85;5.18;;;10.60;99.90;;;10.00;100.00;102998.28;4168776;28;20022;-73
2024/02/01 00:50:40;;;;;;;8.25;4.88;;;10.60;99.90;;;9.97;100.00;102994.03;4167467;28;20105;-73
2024/02/01 00:52:41;;;;;;;13.95;6.07;;;10.60;99.90;;;9.98;100.00;102985.19;4167619;28;20539;-74
2024/02/01 00:54:42;;;;;;;11.75;6.07;;;10.60;99.90;;;9.97;100.00;102978.22;4168733;28;20392;-74
2024/02/01 00:56:43;;;;;;;11.82;6.43;;;10.60;99.90;;;9.99;100.00;102978.13;4167321;28;20093;-74
2024/02/01 00:58:43;;;;;;;19.83;9.25;;;10.60;99.90;;;9.98;100.00;102972.00;4168635;28;20033;-74
2024/02/01 01:00:46;;;;;;;10.52;5.57;;;10.60;99.90;;;9.99;100.00;102970.22;4168620;28;20084;-74
2024/02/01 01:02:47;;;;;;;8.80;4.47;;;10.60;99.90;;;10.01;100.00;102979.72;4166800;28;20044;-74
2024/02/01 01:04:48;;;;;;;8.13;3.88;;;10.60;99.90;;;9.97;100.00;102978.22;4168516;28;20026;-74
2024/02/01 01:06:49;;;;;;;9.05;3.95;;;10.60;99.90;;;10.00;100.00;102974.56;4166980;28;20029;-74
2024/02/01 01:08:49;;;;;;;7.57;3.88;;;10.60;99.90;;;10.01;100.00;102986.78;4168673;28;20017;-74
2024/02/01 01:10:50;;;;;;;9.75;4.20;;;10.60;99.90;;;10.00;100.00;102991.19;4168576;28;20033;-74
2024/02/01 01:12:51;;;;;;;12.68;5.05;;;10.60;99.90;;;10.00;100.00;102978.00;4168347;28;20036;-74
2024/02/01 01:14:52;;;;;;;11.15;4.03;;;10.60;99.90;;;10.00;100.00;102988.56;4167226;28;20092;-74
2024/02/01 01:16:53;;;;;;;7.65;4.45;;;10.60;99.90;;;10.01;100.00;102990.25;4167123;28;20108;-74
2024/02/01 01:18:54;;;;;;;12.65;4.75;;;10.60;99.90;;;10.04;100.00;102983.94;4168539;28;20080;-74
2024/02/01 01:20:57;;;;;;;8.25;3.80;;;10.60;99.90;;;10.04;100.00;102994.50;4167206;28;20032;-74
2024/02/01 01:22:58;;;;;;;9.05;4.65;;;10.70;99.90;;;10.05;100.00;102992.72;4167233;28;20079;-74
2024/02/01 01:24:59;;;;;;;10.57;4.07;;;10.70;99.90;;;10.05;100.00;102990.91;4168399;28;20030;-74
2024/02/01 01:28:11;;;;;;;9.43;4.03;;;10.70;99.90;;;10.04;100.00;102991.84;4168327;28;20022;-74
2024/02/01 01:30:12;;;;;;;9.70;4.28;;;10.70;99.90;;;10.08;100.00;103003.06;4168593;28;20033;-74
2024/02/01 01:32:14;;;;;;;8.43;3.58;;;10.70;99.90;;;10.07;100.00;103004.00;4168294;28;20028;-74
2024/02/01 01:34:14;;;;;;;9.65;4.20;;;10.70;99.90;;;10.09;100.00;103002.13;4168269;28;20033;-74
2024/02/01 01:36:15;;;;;;;8.80;3.50;;;10.70;99.90;;;10.08;100.00;103001.28;4167187;28;20022;-74
2024/02/01 01:38:16;;;;;;;12.70;4.38;;;10.70;99.90;;;10.09;100.00;102988.94;4169079;28;20025;-74
2024/02/01 01:40:17;;;;;;;11.48;3.67;;;10.70;99.90;;;10.06;100.00;102986.50;4170332;28;20052;-74
2024/02/01 01:42:18;;;;;;;9.13;3.85;;;10.70;99.90;;;10.10;100.00;102985.34;4171295;28;20393;-74
2024/02/01 01:44:19;;;;;;;15.73;5.07;;;10.70;99.90;;;10.06;100.00;102968.03;4170324;28;20029;-74
2024/02/01 01:46:20;;;;;;;9.57;4.65;;;10.70;99.90;;;10.11;100.00;102963.31;4170194;28;20030;-73
2024/02/01 01:48:21;;;;;;;9.45;4.30;;;10.70;99.90;;;10.10;100.00;102958.97;4171275;28;20053;-74
2024/02/01 01:50:23;;;;;;;7.63;4.35;;;10.70;99.90;;;10.08;100.00;102950.31;4170112;28;20036;-74
2024/02/01 01:52:25;;;;;;;12.80;4.32;;;10.70;99.90;;;10.10;100.00;102972.16;4171529;28;20025;-74
2024/02/01 01:54:26;;;;;;;14.55;4.65;;;10.70;99.90;;;10.08;100.00;102971.41;4171379;28;20037;-74
2024/02/01 01:56:28;;;;;;;10.32;4.20;;;10.70;99.90;;;10.11;100.00;102976.50;4169920;28;20060;-74
2024/02/01 01:58:33;;;;;;;11.80;4.90;;;10.70;99.90;;;10.09;100.00;102970.47;4171195;28;20022;-74
2024/02/01 02:00:34;;;;;;;5.28;3.22;;;10.70;99.90;;;10.13;100.00;102974.59;4170174;28;20619;-74
2024/02/01 02:02:36;;;;;;;11.13;4.13;;;10.80;99.90;;;10.11;100.00;102979.97;4169979;28;20031;-74
2024/02/01 02:04:37;;;;;;;7.80;3.97;;;10.80;99.90;;;10.14;100.00;102992.16;4169914;28;20025;-74
2024/02/01 02:06:38;;;;;;;9.40;3.97;;;10.80;99.90;;;10.15;100.00;102991.22;4171073;28;20022;-74
2024/02/01 02:08:39;;;;;;;13.23;4.63;;;10.80;99.90;;;10.14;100.00;102982.47;4171210;28;20076;-73
2024/02/01 02:10:40;;;;;;;8.65;3.47;;;10.80;99.90;;;10.13;100.00;102979.88;4171225;28;20112;-74
2024/02/01 02:12:43;;;;;;;10.10;3.90;;;10.80;99.90;;;10.16;100.00;102983.19;4169590;28;20036;-74
2024/02/01 02:15:01;;;;;;;9.85;3.83;;;10.80;99.90;;;10.15;100.00;102984.16;4169741;28;20096;-74
2024/02/01 02:17:05;;;;;;;16.30;4.10;;;10.80;99.90;;;10.12;100.00;102975.56;4169927;28;20026;-74
2024/02/01 02:19:09;;;;;;;12.02;4.03;;;10.80;99.90;;;10.13;100.00;102977.22;4169729;28;20029;-74
2024/02/01 02:21:15;;;;;;;11.40;3.97;;;10.80;99.90;;;10.11;100.00;102979.13;4153498;28;20037;-74
2024/02/01 02:23:17;;;;;;;9.00;3.78;;;10.80;99.90;;;10.10;100.00;102985.34;4170057;28;20459;-74
2024/02/01 02:25:18;;;;;;;10.82;3.65;;;10.80;99.90;;;10.12;100.00;102981.69;4169680;28;20397;-74
2024/02/01 02:27:20;;;;;;;5.50;3.00;;;10.80;99.90;;;10.12;100.00;102976.41;4170667;28;20037;-74
2024/02/01 02:29:21;;;;;;;12.98;4.53;;;10.80;99.90;;;10.12;100.00;102986.09;4153106;28;20053;-74
2024/02/01 02:31:21;;;;;;;10.20;4.03;;;10.70;99.90;;;10.08;100.00;102981.97;4170814;28;20029;-74
2024/02/01 02:33:22;;;;;;;12.43;4.07;;;10.70;99.90;;;10.09;100.00;102988.94;4169583;28;20528;-74
2024/02/01 02:35:23;;;;;;;11.20;3.60;;;10.70;99.90;;;10.08;100.00;102992.50;4169463;28;20504;-73
2024/02/01 02:37:24;;;;;;;9.38;3.90;;;10.70;99.90;;;10.09;100.00;102992.44;4169462;28;20100;-74
2024/02/01 02:39:25;;;;;;;9.60;3.83;;;10.70;99.90;;;10.10;100.00;102991.47;4170769;28;20037;-74
2024/02/01 02:41:25;;;;;;;12.60;5.03;;;10.70;99.90;;;10.08;100.00;102989.88;4170475;28;20423;-74
2024/02/01 02:43:26;;;;;;;13.05;5.05;;;10.70;99.90;;;10.10;100.00;102987.97;4169489;28;20432;-74
2024/02/01 02:45:27;;;;;;;10.75;4.50;;;10.70;99.90;;;10.09;100.00;102996.84;4170469;28;20076;-74
2024/02/01 02:47:28;;;;;;;10.23;3.92;;;10.70;99.90;;;10.08;100.00;102993.38;4170460;28;20053;-74
2024/02/01 02:49:29;;;;;;;9.02;3.95;;;10.70;99.90;;;10.08;100.00;102985.44;4169026;28;20029;-74
2024/02/01 02:51:30;;;;;;;10.18;4.68;;;10.70;99.90;;;10.09;100.00;102986.31;4169905;28;20029;-74
2024/02/01 02:53:30;;;;;;;7.90;4.35;;;10.70;99.90;;;10.09;100.00;102991.56;4170456;28;20025;-74
2024/02/01 02:55:31;;;;;;;9.25;4.30;;;10.70;99.90;;;10.09;100.00;102994.22;4169100;28;20044;-74
2024/02/01 02:57:34;;;;;;;8.15;3.95;;;10.70;99.90;;;10.08;100.00;102990.72;4170276;28;20036;-74
2024/02/01 02:59:37;;;;;;;10.93;4.50;;;10.70;99.90;;;10.10;100.00;102980.06;4169238;28;20052;-74
2024/02/01 03:01:40;;;;;;;11.43;4.20;;;10.70;99.90;;;10.09;100.00;102975.75;4169007;28;20026;-74
2024/02/01 03:03:40;;;;;;;8.98;3.97;;;10.70;99.90;;;10.09;100.00;102987.16;4170462;28;20057;-73
2024/02/01 03:05:41;;;;;;;13.80;4.53;;;10.70;99.90;;;10.08;100.00;102972.25;4168430;28;20032;-73
2024/02/01 03:07:43;;;;;;;10.63;4.05;;;10.70;99.90;;;10.08;100.00;102974.91;4168982;28;20029;-74
2024/02/01 03:09:44;;;;;;;7.32;3.97;;;10.70;99.90;;;10.11;100.00;102973.84;4169017;28;20436;-74
2024/02/01 03:11:45;;;;;;;10.68;4.57;;;10.70;99.90;;;10.12;100.00;102970.28;4169992;28;20021;-74
2024/02/01 03:13:46;;;;;;;12.07;4.32;;;10.70;99.90;;;10.12;100.00;102972.94;4169016;28;20064;-74
2024/02/01 03:15:47;;;;;;;9.07;4.30;;;10.70;99.90;;;10.11;100.00;102965.94;4168381;28;20485;-74
2024/02/01 03:17:49;;;;;;;15.52;4.63;;;10.80;99.90;;;10.13;100.00;102974.59;4170085;28;20038;-74
2024/02/01 03:19:50;;;;;;;14.65;5.57;;;10.80;99.90;;;10.14;100.00;102968.41;4168438;28;20033;-74
2024/02/01 03:21:55;;;;;;;11.88;5.07;;;10.80;99.90;;;10.14;100.00;102965.78;4168866;28;20029;-74
2024/02/01 03:23:58;;;;;;;15.50;5.00;;;10.80;99.90;;;10.18;100.00;102967.28;4169835;28;20030;-74
2024/02/01 03:25:59;;;;;;;14.13;5.20;;;10.80;99.90;;;10.16;100.00;102961.25;4169658;28;20124;-74
2024/02/01 03:28:04;;;;;;;13.32;5.18;;;10.80;99.90;;;10.19;100.00;102958.41;4169791;28;20033;-74
2024/02/01 03:30:11;;;;;;;13.07;5.55;;;10.80;99.90;;;10.20;100.00;102946.94;4168805;28;20428;-74
2024/02/01 03:32:12;;;;;;;20.08;6.68;;;10.80;99.90;;;10.18;100.00;102928.56;4168881;28;20025;-74
2024/02/01 03:34:20;;;;;;;13.27;5.65;;;10.80;99.90;;;10.20;100.00;102920.53;4152054;28;20033;-74
2024/02/01 03:36:21;;;;;;;14.60;6.22;;;10.80;99.90;;;10.18;100.00;102923.31;4169668;28;20021;-74
2024/02/01 03:38:21;;;;;;;15.55;6.07;;;10.80;99.90;;;10.19;100.00;102924.13;4169749;28;20033;-74
2024/02/01 03:40:22;;;;;;;15.55;5.85;;;10.80;99.90;;;10.17;100.00;102915.47;4169744;28;20034;-74
2024/02/01 03:42:23;;;;;;;21.10;8.38;;;10.80;99.90;;;10.16;100.00;102919.03;4169551;28;20503;-74
2024/02/01 03:44:25;;;;;;;19.00;8.57;;;10.80;99.90;;;10.16;100.00;102926.97;4168560;28;20021;-74
2024/02/01 03:46:26;;;;;;;11.88;6.43;;;10.80;99.90;;;10.16;100.00;102924.31;4168263;28;20113;-74
2024/02/01 03:48:27;;;;;;;20.92;9.10;;;10.80;99.90;;;10.16;100.00;102930.44;4169376;28;20041;-74
2024/02/01 03:50:28;;;;;;;17.10;6.63;;;10.80;99.90;;;10.15;100.00;102931.41;4169455;28;20033;-74
2024/02/01 03:52:29;;;;;;;13.02;5.57;;;10.80;99.90;;;10.12;100.00;102925.44;4169596;28;20083;-74
2024/02/01 03:54:31;;;;;;;11.38;4.78;;;10.80;99.90;;;10.14;100.00;102923.59;4168322;28;20021;-74
2024/02/01 03:56:36;;;;;;;13.40;4.82;;;10.80;99.90;;;10.12;100.00;102933.38;4169178;28;20026;-74
2024/02/01 03:58:36;;;;;;;16.25;5.28;;;10.80;99.90;;;10.14;100.00;102953.44;4168123;28;20076;-74
2024/02/01 04:00:37;;;;;;;12.27;5.20;;;10.80;99.90;;;10.10;100.00;102951.91;4168279;28;20029;-74
2024/02/01 04:02:38;;;;;;;15.15;6.32;;;10.80;99.90;;;10.12;100.00;102950.03;4169205;28;20021;-74
2024/02/01 04:04:45;;;;;;;17.45;7.25;;;10.80;99.90;;;10.12;100.00;102954.47;4169239;28;20029;-74
2024/02/01 04:06:46;;;;;;;12.13;4.47;;;10.80;99.90;;;10.12;100.00;102954.47;4168146;28;20022;-74
2024/02/01 04:08:46;;;;;;;15.77;6.63;;;10.80;99.90;;;10.15;100.00;102967.47;4151726;28;20049;-74
2024/02/01 04:10:47;;;;;;;13.93;5.90;;;10.80;99.90;;;10.14;100.00;102965.78;4169297;28;20030;-74
2024/02/01 04:12:48;;;;;;;15.68;6.22;;;10.80;99.90;;;10.13;100.00;102964.94;4169035;28;20021;-74
2024/02/01 04:14:49;;;;;;;9.30;4.78;;;10.80;99.90;;;10.15;100.00;102964.84;4169000;28;20030;-74
2024/02/01 04:16:50;;;;;;;15.32;5.35;;;10.80;99.90;;;10.15;100.00;102975.41;4169233;28;20021;-74
2024/02/01 04:18:52;;;;;;;9.25;4.95;;;10.80;99.90;;;10.15;100.00;102968.34;4168094;28;20056;-74
2024/02/01 04:20:52;;;;;;;12.82;5.63;;;10.80;99.90;;;10.17;100.00;102965.59;4169017;28;20025;-74
2024/02/01 04:22:53;;;;;;;14.00;5.90;;;10.80;99.90;;;10.16;100.00;102958.59;4169010;28;20033;-74
2024/02/01 04:24:54;;;;;;;17.90;5.85;;;10.80;99.90;;;10.16;100.00;102950.69;4169015;28;20031;-74
2024/02/01 04:26:55;;;;;;;17.30;5.68;;;10.80;99.90;;;10.18;100.00;102956.75;4167554;28;20100;-74
2024/02/01 04:28:56;;;;;;;16.60;7.45;;;10.80;99.90;;;10.18;100.00;102959.38;4169114;28;20389;-74
2024/02/01 04:30:57;;;;;;;12.55;5.97;;;10.80;99.90;;;10.20;100.00;102968.03;4167645;28;20036;-74
2024/02/01 04:32:58;;;;;;;16.58;6.85;;;10.80;99.90;;;10.21;100.00;102975.00;4169087;28;20021;-74
2024/02/01 04:35:03;;;;;;;10.35;6.40;;;10.80;99.90;;;10.20;100.00;102968.88;4168924;28;20029;-73
2024/02/01 04:37:05;;;;;;;18.35;7.32;;;10.80;99.90;;;10.22;100.00;102974.03;4167832;28;20029;-74
2024/02/01 04:39:08;;;;;;;13.85;7.68;;;10.80;99.90;;;10.23;100.00;102978.38;4167538;28;20112;-74
2024/02/01 04:41:10;;;;;;;14.70;7.40;;;10.80;99.90;;;10.24;100.00;102985.34;4168708;28;20394;-74
2024/02/01 04:43:11;;;;;;;16.38;6.60;;;10.90;99.90;;;10.24;100.00;102982.72;4168865;28;20033;-74
2024/02/01 04:45:12;;;;;;;16.75;5.60;;;10.90;99.90;;;10.25;100.00;102994.94;4168589;28;20022;-74
2024/02/01 04:47:13;;;;;;;16.77;5.28;;;10.90;99.90;;;10.28;100.00;102994.75;4168437;28;20080;-74
2024/02/01 04:49:14;;;;;;;17.83;6.32;;;10.90;99.90;;;10.25;100.00;102984.38;4168817;28;20080;-74
2024/02/01 04:51:15;;;;;;;15.65;6.30;;;10.90;99.90;;;10.28;100.00;103000.00;4167450;28;20497;-74
2024/02/01 04:53:16;;;;;;;17.95;7.25;;;10.90;99.90;;;10.27;100.00;102985.16;4167708;28;20378;-74
2024/02/01 04:55:16;;;;;;;24.00;7.75;;;10.90;99.90;;;10.32;100.00;103001.53;4150929;28;20026;-74
2024/02/01 04:57:17;;;;;;;15.90;6.93;;;10.90;99.90;;;10.33;100.00;102997.94;4168533;28;20025;-74
2024/02/01 04:59:18;;;;;;;18.58;7.78;;;10.90;99.90;;;10.31;100.00;102997.19;4168249;28;20038;-74
2024/02/01 05:01:19;;;;;;;18.77;8.15;;;10.90;99.90;;;10.31;100.00;102998.03;4168211;28;20032;-74
2024/02/01 05:03:21;;;;;;;25.88;8.48;;;11.00;99.90;;;10.34;100.00;103002.25;4167346;28;20033;-74
2024/02/01 05:05:22;;;;;;;17.75;7.45;;;11.00;99.90;;;10.38;100.00;103003.75;4168554;28;20116;-74
2024/02/01 05:07:23;;;;;;;19.00;7.55;;;11.00;99.90;;;10.37;100.00;103008.19;4168705;28;20500;-74
2024/02/01 05:09:25;;;;;;;16.48;6.95;;;11.00;99.90;;;10.36;100.00;103010.94;4168746;28;20021;-74
2024/02/01 05:11:26;;;;;;;17.95;8.10;;;11.00;99.90;;;10.37;100.00;103009.97;4167142;28;20068;-74
2024/02/01 05:13:30;;;;;;;23.33;7.75;;;11.00;99.90;;;10.38;100.00;103009.91;4169685;28;20017;-74
2024/02/01 05:15:31;;;;;;;17.02;7.63;;;11.00;99.90;;;10.39;100.00;103008.09;4170345;28;20026;-74
2024/02/01 05:17:33;;;;;;;15.02;6.32;;;11.00;99.90;;;10.38;100.00;103009.91;4170636;28;20116;-74
2024/02/01 05:19:35;;;;;;;20.67;6.30;;;11.00;99.90;;;10.40;100.00;103004.50;4170738;28;20037;-74
2024/02/01 05:21:36;;;;;;;19.30;6.60;;;11.00;99.90;;;10.35;100.00;102977.59;4170445;28;20025;-74
2024/02/01 05:23:37;;;;;;;22.30;7.47;;;11.00;99.90;;;10.40;100.00;102983.41;4170753;28;20038;-74
2024/02/01 05:25:40;;;;;;;17.30;7.55;;;11.10;99.90;;;10.39;100.00;102990.47;4171746;28;20505;-74
2024/02/01 05:27:50;;;;;;;21.63;8.88;;;11.00;99.90;;;10.37;100.00;102981.81;4170359;28;20026;-74
2024/02/01 05:29:51;;;;;;;17.50;8.35;;;11.00;99.90;;;10.39;100.00;102963.25;4170739;28;20485;-74
2024/02/01 05:31:55;;;;;;;24.63;8.25;;;11.00;99.90;;;10.39;100.00;102957.97;4170649;28;20032;-74
2024/02/01 05:33:55;;;;;;;29.23;9.07;;;11.00;99.90;;;10.38;100.00;102956.28;4170581;28;20036;-74
2024/02/01 05:35:56;;;;;;;17.13;8.05;;;11.00;99.90;;;10.38;100.00;102957.13;4171506;28;20033;-74
2024/02/01 05:38:01;;;;;;;24.70;8.10;;;11.00;99.90;;;10.39;100.00;102960.63;4171680;28;20026;-74
2024/02/01 05:40:04;;;;;;;21.98;7.20;;;11.00;99.90;;;10.37;100.00;102957.22;4170459;28;20500;-74
2024/02/01 05:42:06;;;;;;;19.55;6.72;;;11.00;99.90;;;10.38;100.00;102965.03;4171362;28;20036;-74
2024/02/01 05:44:11;;;;;;;23.30;7.90;;;11.00;99.90;;;10.39;100.00;102966.72;4171422;28;20029;-74
2024/02/01 05:46:14;;;;;;;20.75;8.27;;;11.00;99.90;;;10.39;100.00;102968.53;4169948;28;20032;-74
2024/02/01 05:48:15;;;;;;;24.73;7.70;;;11.00;99.90;;;10.40;100.00;102978.97;4170164;28;20056;-74
2024/02/01 05:50:16;;;;;;;24.38;8.82;;;11.00;99.90;;;10.42;100.00;102979.72;4171359;28;20025;-74
2024/02/01 05:52:19;;;;;;;21.48;8.23;;;11.00;99.90;;;10.41;100.00;102972.75;4171527;28;20060;-74
2024/02/01 05:54:21;;;;;;;20.05;8.10;;;11.10;99.90;;;10.45;100.00;102978.69;4170311;28;20390;-74
2024/02/01 05:56:22;;;;;;;29.13;9.85;;;11.10;99.90;;;10.47;100.00;102979.41;4169828;28;20061;-74
2024/02/01 05:58:23;;;;;;;22.45;9.07;;;11.10;99.90;;;10.47;100.00;102974.13;4171261;28;20025;-73
2024/02/01 06:00:24;;;;;;;22.73;8.55;;;11.10;99.90;;;10.48;100.00;102989.03;4171440;28;20409;-74
2024/02/01 06:02:25;;;;;;;20.98;8.57;;;11.10;99.90;;;10.49;100.00;102985.44;4171154;28;20029;-74
2024/02/01 06:04:26;;;;;;;25.35;9.32;;;11.10;99.90;;;10.51;100.00;102994.94;4171263;28;20080;-74
2024/02/01 06:06:27;;;;;;;21.23;8.13;;;11.10;99.90;;;10.47;100.00;102980.28;4171136;28;20030;-73
2024/02/01 06:08:28;;;;;;;28.02;8.75;;;11.10;99.90;;;10.51;100.00;102988.84;4170098;28;20022;-74
2024/02/01 06:10:29;;;;;;;21.15;9.35;;;11.20;99.90;;;10.52;100.00;102986.09;4171174;28;20052;-74
2024/02/01 06:12:30;;;;;;;17.17;8.00;;;11.10;99.90;;;10.49;100.00;102986.28;4170943;28;20485;-74
2024/02/01 06:14:31;;;;;;;21.00;9.10;;;11.10;99.90;;;10.48;100.00;102991.69;4169863;28;20500;-74
2024/02/01 06:16:32;;;;;;;29.52;8.98;;;11.10;99.90;;;10.52;100.00;102996.63;4169700;28;20520;-74
2024/02/01 06:18:33;;;;;;;19.65;9.68;;;11.20;99.90;;;10.51;100.00;102997.56;4169914;28;20021;-74
2024/02/01 06:20:34;;;;;;;20.38;7.07;;;11.20;99.90;;;10.51;100.00;103004.66;4169881;28;20509;-74
2024/02/01 06:22:36;;;;;;;25.88;8.70;;;11.20;99.90;;;10.52;100.00;103006.34;4153375;28;20072;-74
2024/02/01 06:24:37;;;;;;;15.73;7.10;;;11.20;99.90;;;10.46;100.00;103001.47;4169803;28;20033;-74
2024/02/01 06:26:38;;;;;;;22.42;7.10;;;11.20;99.90;;;10.51;100.00;103004.66;4170218;28;20033;-74
2024/02/01 06:28:38;;;;;;;18.65;7.00;;;11.20;99.90;;;10.51;100.00;103015.22;4170995;28;20022;-74
2024/02/01 06:30:39;;;;;;;14.32;6.18;;;11.20;99.90;;;10.52;100.00;103007.19;4170904;28;20034;-74
2024/02/01 06:32:40;;;;;;;15.93;6.35;;;11.20;99.90;;;10.54;100.00;103010.56;4170642;28;20022;-74
2024/02/01 06:34:41;;;;;;;17.40;5.30;;;11.20;99.90;;;10.53;100.00;103014.19;4169548;28;20026;-74
2024/02/01 06:36:50;;;;;;;12.82;4.50;;;11.20;99.90;;;10.52;100.00;103004.56;4170907;28;20026;-74
2024/02/01 06:41:17;;;;;;;12.43;4.45;;;11.20;99.90;;;10.54;100.00;103020.31;4170390;28;20884;-74
2024/02/01 06:43:31;;;;;;;10.75;4.32;;;11.20;99.90;;;10.53;100.00;103021.25;4169602;28;20478;-74
2024/02/01 06:45:32;;;;;;;10.20;5.22;;;11.20;99.90;;;10.52;100.00;103022.19;4170306;28;20507;-74
2024/02/01 06:47:38;;;;;;;13.15;5.60;;;11.20;99.90;;;10.52;100.00;103022.19;4170461;28;20037;-74
2024/02/01 06:50:00;;;;;;;14.98;6.25;;;11.20;99.90;;;10.51;100.00;103020.50;4170745;28;20544;-74
2024/02/01 06:54:38;;;;;;;13.77;6.40;;;11.10;99.90;;;10.50;100.00;103010.88;4170399;28;20017;-74
2024/02/01 06:56:52;;;;;;;14.80;6.18;;;11.10;99.90;;;10.46;100.00;103001.47;4170045;28;20109;-74
2024/02/01 06:59:06;;;;;;;16.00;6.05;;;11.10;99.90;;;10.47;100.00;103017.22;4158171;28;20109;-74
2024/02/01 07:02:03;;;;;;;18.50;6.97;;;11.10;99.90;;;10.46;100.00;103006.75;4170252;28;20025;-74
2024/02/01 07:03:44;;;;;;;15.90;5.88;;;11.10;99.90;;;10.44;100.00;103014.78;4162083;28;20037;-74
2024/02/01 07:07:50;;;;;;;16.27;7.38;;;11.10;99.90;;;10.40;100.00;103001.88;4169664;28;20132;-74
2024/02/01 07:10:43;;;;;;;17.77;6.45;;;11.00;99.90;;;10.39;100.00;103000.19;4169010;28;20076;-74
2024/02/01 07:12:19;;;;;;;19.73;7.82;;;11.00;99.90;;;10.41;100.00;103022.03;4155211;28;20033;-74
2024/02/01 07:14:20;;;;;;;15.18;7.05;;;11.00;99.90;;;10.42;100.00;103021.09;4170183;28;20018;-73
2024/02/01 07:16:36;;;;;;;18.25;7.22;;;11.00;99.90;;;10.40;100.00;103023.81;4169837;28;20116;-74
2024/02/01 07:18:43;;;;;;;16.55;6.97;;;11.00;99.90;;;10.42;100.00;103026.38;4170217;28;20382;-74
2024/02/01 07:21:09;;;;;;;14.35;6.40;;;11.00;99.90;;;10.42;100.00;103034.28;4170136;28;20060;-74
2024/02/01 07:25:47;;;;;;;18.20;6.72;;;11.00;99.90;;;10.41;100.00;103041.34;4169976;28;20033;-74
2024/02/01 07:58:08;;;;;;;19.23;7.80;;;11.10;99.90;;;10.47;100.00;103071.78;4168041;28;20595;-74
2024/02/01 08:00:17;;;;;;;;;;;11.10;99.90;;;10.44;100.00;103069.34;4166259;28;20026;-74
2024/02/01 08:02:25;;;;;;;19.23;7.00;;;11.10;99.90;;;10.46;100.00;103067.44;4166449;28;19959;-74
2024/02/01 08:09:11;;;;;;;14.02;6.32;;;11.10;99.90;;;10.47;100.00;103062.06;4168262;28;20032;-75
2024/02/01 08:11:17;;;;;;;14.45;6.07;;;11.10;99.90;;;10.54;100.00;103078.38;4169104;28;20026;-74
2024/02/01 08:13:18;;;;;;;15.18;5.68;;;11.10;99.90;;;10.55;100.00;103074.75;4169408;28;20031;-75
2024/02/01 08:15:19;;;;;;;14.50;6.57;;;11.20;99.90;;;10.55;100.00;103074.75;4169202;28;20440;-75
2024/02/01 08:17:20;;;;;;;16.25;6.20;;;11.20;99.90;;;10.59;100.00;103076.25;4168130;28;20034;-75
2024/02/01 08:19:21;;;;;;;11.75;6.05;;;11.20;99.90;;;10.62;100.00;103070.78;4167983;28;20029;-75
2024/02/01 08:21:24;;;;;;;13.52;6.63;;;11.20;99.90;;;10.67;100.00;103075.75;4169192;28;20037;-75
2024/02/01 08:23:25;;;;;;;15.45;7.57;;;11.30;99.90;;;10.67;100.00;103073.97;4169161;28;20022;-75
2024/02/01 08:25:26;;;;;;;17.42;7.00;;;11.30;99.90;;;10.76;100.00;103072.50;4167813;28;20024;-75
2024/02/01 08:27:27;;;;;;;12.82;7.22;;;11.40;99.90;;;10.81;100.00;103076.53;4167622;28;20032;-75
2024/02/01 08:29:35;;;;;;;13.80;7.28;;;11.40;99.90;;;10.88;100.00;103077.00;4167733;28;20029;-75
2024/02/01 08:31:37;;;;;;;13.10;6.55;;;11.40;99.90;;;10.91;100.00;103079.44;4167731;28;20033;-75
2024/02/01 08:33:42;;;;;;;14.13;6.25;;;11.50;99.90;;;10.95;100.00;103075.66;4167971;28;20032;-75
2024/02/01 08:35:43;;;;;;;15.15;6.80;;;11.50;99.90;;;10.90;100.00;103070.66;4168939;28;20095;-75
2024/02/01 08:37:45;;;;;;;16.42;6.18;;;11.50;99.90;;;10.90;100.00;103068.00;4164471;28;20053;-73
2024/02/01 08:39:46;;;;;;;16.08;6.28;;;11.50;99.90;;;10.93;100.00;103082.84;4166934;28;20029;-74
2024/02/01 08:41:47;;;;;;;17.92;7.28;;;11.50;99.90;;;10.99;100.00;103077.97;4167311;28;20037;-73
2024/02/01 08:43:47;;;;;;;19.95;7.45;;;11.60;99.90;;;11.01;100.00;103081.38;4168375;28;20021;-72
2024/02/01 08:45:48;;;;;;;19.17;7.40;;;11.60;99.90;;;11.03;100.00;103076.84;4166930;28;20029;-73
2024/02/01 08:47:49;;;;;;;13.57;6.00;;;11.60;99.90;;;11.10;100.00;103085.19;4167412;28;20049;-73
2024/02/01 08:49:50;;;;;;;17.27;7.38;;;11.70;99.90;;;11.15;100.00;103082.22;4166730;28;20033;-74
2024/02/01 08:51:51;;;;;;;15.65;6.28;;;11.70;99.90;;;11.21;100.00;103095.03;4168172;28;20026;-73
2024/02/01 08:53:52;;;;;;;17.70;7.22;;;11.70;99.90;;;11.20;100.00;103091.53;4168242;28;20091;-74
2024/02/01 08:55:53;;;;;;;14.80;6.75;;;11.70;99.90;;;11.23;100.00;103101.09;4168053;28;20080;-75
2024/02/01 08:57:54;;;;;;;16.38;8.05;;;11.80;99.90;;;11.26;100.00;103112.25;4166898;28;20033;-74
2024/02/01 08:59:55;;;;;;;13.38;6.43;;;11.80;99.90;;;11.29;100.00;103116.53;4168137;28;20463;-74
2024/02/01 09:01:56;;;;;;;19.83;8.05;;;11.90;99.90;;;11.25;100.00;103117.66;4167916;28;20029;-74
2024/02/01 09:03:59;;;;;;;16.77;6.63;;;11.90;99.90;;;11.27;100.00;103126.31;4167031;28;20057;-75
2024/02/01 09:06:08;;;;;;;17.65;6.22;;;11.80;99.90;;;11.30;100.00;103131.41;4168200;28;20120;-74